CET,Max TemperatureF,Mean TemperatureF,Min TemperatureF,Max Dew PointF,MeanDew PointF,Min DewpointF,Max Humidity, Mean Humidity, Min Humidity, Max Sea Level PressureIn, Mean Sea Level PressureIn, Min Sea Level PressureIn, Max VisibilityMiles, Mean VisibilityMiles, Min VisibilityMiles, Max Wind SpeedMPH, Mean Wind SpeedMPH, Max Gust SpeedMPH,PrecipitationIn, CloudCover, Events, WindDirDegrees
2012-12-1,59,50,40,48,44,39,100,81,49,29.79,29.73,29.68,9,6,6,7,4,,0.00,4,,303
2012-12-2,58,52,45,47,45,39,93,77,51,29.96,29.85,29.77,7,6,6,24,8,37,0.01,3,Rain-Thunderstorm,316
2012-12-3,56,52,49,50,46,41,88,75,51,30.13,30.06,29.95,9,6,6,24,18,38,0.01,4,Rain,306
2012-12-4,61,54,48,54,48,41,94,78,52,30.12,29.94,29.83,6,6,2,21,9,32,0.28,3,Rain,294
2012-12-5,54,50,46,46,43,39,87,73,55,29.86,29.82,29.74,12,6,2,14,9,21,0.12,2,Rain-Thunderstorm,306
2012-12-6,57,50,42,46,39,34,82,62,39,30.02,29.91,29.86,12,6,6,26,13,39,0.00,2,,299
2012-12-7,59,49,39,48,41,35,87,70,39,30.03,29.94,29.77,12,7,6,12,5,,0.00,2,Rain,328
2012-12-8,55,50,44,49,41,36,82,72,54,29.92,29.77,29.71,12,6,5,26,11,37,0.12,5,Rain-Thunderstorm,304
2012-12-9,54,46,39,37,33,26,81,61,23,30.17,30.07,29.92,19,7,6,17,8,,0.00,2,,330
2012-12-10,60,51,42,46,41,36,87,68,44,30.15,29.99,29.89,12,6,6,21,9,33,0.00,3,,307
2012-12-11,55,48,42,43,36,32,76,59,33,30.01,29.96,29.89,12,6,6,21,11,,0.00,2,,316
2012-12-12,55,47,39,43,36,30,81,63,43,30.12,30.06,30.01,12,6,6,9,5,,0.00,2,,76
2012-12-13,56,49,42,46,40,34,93,71,41,30.09,30.04,30.01,9,6,4,8,3,,0.00,3,,307
2012-12-14,64,52,40,55,45,39,99,79,51,30.11,30.05,30.01,7,6,4,7,3,,0.00,3,,342
2012-12-15,65,56,48,57,50,41,88,75,60,30.12,30.08,30.04,12,6,5,17,5,,0.00,3,,317
2012-12-16,64,58,53,59,54,48,94,80,57,30.10,30.06,30.01,9,6,2,17,7,,0.00,3,Fog-Rain,290
2012-12-17,65,58,51,56,49,43,88,75,51,30.04,29.97,29.92,12,6,6,25,9,,0.00,2,Rain,303
2012-12-18,61,58,55,48,43,39,72,57,35,30.03,29.99,29.95,9,6,6,31,23,47,0.00,2,,305
2012-12-19,60,51,42,43,41,39,87,64,38,30.17,30.09,30.01,12,6,6,16,10,,0.00,1,,320
2012-12-20,59,48,37,50,43,36,100,81,59,30.17,30.08,29.98,12,6,6,10,5,,0.00,3,,213
2012-12-21,63,58,52,54,50,46,94,77,52,29.98,29.94,29.89,12,6,6,16,7,,0.01,3,Rain,294
2012-12-22,61,54,46,50,47,41,94,77,47,30.22,30.07,29.92,12,7,6,13,7,,0.00,2,Rain,316
2012-12-23,63,53,43,57,48,37,100,83,54,30.24,30.20,30.15,7,6,6,15,7,,0.00,3,,313
2012-12-24,60,51,42,57,51,39,100,91,66,30.23,30.18,30.15,12,5,0,12,6,,0.00,2,Fog,148
2012-12-25,64,58,51,57,54,50,100,84,57,30.15,30.03,29.95,12,6,0,14,9,,0.00,2,Fog,130
2012-12-26,63,53,43,56,50,45,100,84,64,30.15,30.03,29.98,12,5,0,21,7,,0.00,3,Fog-Rain,305
2012-12-27,60,54,48,48,46,42,87,73,43,30.28,30.23,30.15,12,6,6,25,11,,0.00,2,,320
2012-12-28,59,52,46,49,45,41,93,68,39,30.31,30.25,30.21,9,6,6,28,14,41,0.00,2,,311
2012-12-29,62,50,39,48,40,32,100,76,26,30.33,30.26,30.18,12,6,4,12,8,,0.00,1,,311
2012-12-30,62,50,37,52,43,36,100,82,58,30.28,30.23,30.18,9,6,4,10,7,,0.00,2,,314
2012-12-31,59,49,39,48,43,37,100,78,54,30.30,30.24,30.18,9,6,6,9,6,,0.00,2,Rain,322